createdAt,value
2023-04-16T00:00:12.593Z,7.35
2023-04-16T00:03:16.819Z,7.40
2023-04-16T00:06:21.505Z,7.42
2023-04-16T00:09:24.680Z,7.37
2023-04-16T00:12:27.542Z,7.38
2023-04-16T00:15:30.787Z,7.37
2023-04-16T00:18:33.623Z,7.16
2023-04-16T00:21:36.774Z,7.06
2023-04-16T00:24:39.682Z,7.20
2023-04-16T00:27:42.870Z,7.17
2023-04-16T00:30:45.958Z,7.05
2023-04-16T00:33:50.756Z,6.99
2023-04-16T00:36:53.725Z,7.03
2023-04-16T00:39:56.999Z,6.98
2023-04-16T00:42:59.970Z,6.87
2023-04-16T00:46:07.571Z,6.73
2023-04-16T00:49:10.887Z,6.67
2023-04-16T00:52:15.546Z,6.62
2023-04-16T00:55:19.042Z,6.45
2023-04-16T00:58:22.914Z,6.48
2023-04-16T01:01:26.066Z,6.32
2023-04-16T01:04:31.067Z,6.27
2023-04-16T01:07:34.430Z,6.26
2023-04-16T01:10:37.721Z,6.20
2023-04-16T01:13:40.934Z,6.16
2023-04-16T01:16:44.153Z,6.13
2023-04-16T01:19:46.996Z,6.06
2023-04-16T01:22:50.143Z,6.09
2023-04-16T01:25:53.144Z,6.13
2023-04-16T01:28:56.416Z,6.08
2023-04-16T01:31:59.362Z,6.10
2023-04-16T01:35:03.329Z,6.16
2023-04-16T01:38:08.152Z,6.13
2023-04-16T01:41:11.411Z,6.02
2023-04-16T01:44:14.309Z,5.79
2023-04-16T01:47:18.486Z,5.79
2023-04-16T01:50:23.522Z,5.80
2023-04-16T01:53:26.856Z,5.72
2023-04-16T01:56:29.715Z,5.74
2023-04-16T01:59:33.241Z,5.65
2023-04-16T02:02:36.674Z,5.60
2023-04-16T02:05:40.100Z,5.50
2023-04-16T02:08:43.394Z,5.27
2023-04-16T02:11:47.033Z,5.33
2023-04-16T02:14:50.251Z,5.20
2023-04-16T02:17:57.233Z,5.22
2023-04-16T02:21:00.945Z,5.16
2023-04-16T02:24:04.263Z,5.11
2023-04-16T02:27:08.467Z,5.10
2023-04-16T02:30:12.886Z,5.10
2023-04-16T02:33:16.452Z,5.04
2023-04-16T02:36:20.985Z,4.97
2023-04-16T02:39:24.193Z,4.98
2023-04-16T02:42:29.053Z,5.11
2023-04-16T02:45:32.303Z,4.96
2023-04-16T02:48:35.395Z,4.97
2023-04-16T02:51:38.622Z,4.84
2023-04-16T02:54:41.477Z,4.82
2023-04-16T02:57:44.729Z,4.79
2023-04-16T03:00:48.114Z,4.75
2023-04-16T03:03:51.349Z,4.77
2023-04-16T03:06:54.335Z,4.56
2023-04-16T03:09:57.643Z,4.50
2023-04-16T03:13:01.234Z,4.44
2023-04-16T03:16:04.671Z,4.46
2023-04-16T03:19:07.775Z,4.44
2023-04-16T03:22:12.313Z,4.44
2023-04-16T03:25:15.320Z,4.45
2023-04-16T03:28:18.546Z,4.45
2023-04-16T03:31:24.438Z,4.43
2023-04-16T03:34:28.408Z,4.50
2023-04-16T03:37:31.524Z,4.50
2023-04-16T03:40:34.980Z,4.42
2023-04-16T03:43:38.064Z,4.33
2023-04-16T03:46:41.400Z,4.34
2023-04-16T03:49:44.420Z,4.37
2023-04-16T03:52:49.544Z,4.48
2023-04-16T03:55:53.521Z,4.49
2023-04-16T03:58:58.690Z,4.51
2023-04-16T04:02:01.767Z,4.41
2023-04-16T04:05:06.607Z,4.39
2023-04-16T04:08:11.304Z,4.43
2023-04-16T04:11:14.690Z,4.45
2023-04-16T04:14:18.319Z,4.33
2023-04-16T04:17:21.730Z,4.24
2023-04-16T04:20:24.750Z,4.34
2023-04-16T04:23:28.054Z,4.28
2023-04-16T04:26:30.683Z,4.45
2023-04-16T04:29:34.116Z,4.50
2023-04-16T04:32:37.168Z,4.55
2023-04-16T04:35:40.493Z,4.44
2023-04-16T04:38:44.366Z,4.52
2023-04-16T04:41:48.376Z,4.58
2023-04-16T04:44:52.548Z,4.24
2023-04-16T04:47:58.593Z,4.46
2023-04-16T04:51:02.979Z,4.18
2023-04-16T04:54:09.172Z,4.55
2023-04-16T04:57:12.181Z,4.80
2023-04-16T05:00:17.315Z,5.00
2023-04-16T05:03:22.170Z,5.09
2023-04-16T05:06:26.809Z,4.71
2023-04-16T05:09:31.405Z,5.10
2023-04-16T05:12:34.548Z,5.12
2023-04-16T05:15:37.936Z,5.50
2023-04-16T05:18:41.557Z,5.47
2023-04-16T05:21:44.474Z,5.58
2023-04-16T05:24:47.863Z,5.12
2023-04-16T05:27:50.879Z,5.42
2023-04-16T05:30:54.183Z,5.30
2023-04-16T05:33:57.098Z,5.28
2023-04-16T05:37:01.019Z,5.57
2023-04-16T05:40:04.252Z,5.59
2023-04-16T05:43:08.640Z,5.46
2023-04-16T05:46:11.657Z,5.43
2023-04-16T05:49:19.335Z,5.54
2023-04-16T05:52:22.378Z,5.90
2023-04-16T05:55:26.816Z,6.10
2023-04-16T05:58:29.754Z,6.31
2023-04-16T06:01:34.406Z,6.35
2023-04-16T06:04:37.737Z,5.79
2023-04-16T06:07:40.686Z,6.14
2023-04-16T06:10:46.632Z,6.25
2023-04-16T06:13:49.652Z,6.69
2023-04-16T06:16:52.942Z,6.62
2023-04-16T06:19:55.891Z,6.86
2023-04-16T06:22:59.072Z,6.49
2023-04-16T06:26:01.969Z,6.17
2023-04-16T06:29:05.292Z,6.39
2023-04-16T06:32:08.439Z,6.48
2023-04-16T06:35:12.998Z,6.48
2023-04-16T06:38:16.331Z,6.62
2023-04-16T06:41:20.440Z,6.92
2023-04-16T06:44:23.360Z,6.98
2023-04-16T06:47:27.270Z,6.59
2023-04-16T06:50:30.221Z,6.92
2023-04-16T06:53:33.652Z,6.85
2023-04-16T06:56:37.554Z,7.01
2023-04-16T06:59:41.168Z,6.90
2023-04-16T07:02:44.104Z,7.49
2023-04-16T07:05:47.433Z,6.87
2023-04-16T07:08:50.316Z,7.53
2023-04-16T07:11:54.212Z,7.14
2023-04-16T07:14:57.297Z,7.67
2023-04-16T07:18:01.358Z,7.49
2023-04-16T07:21:04.508Z,7.54
2023-04-16T07:24:08.448Z,7.62
2023-04-16T07:27:11.812Z,7.61
2023-04-16T07:30:15.383Z,8.14
2023-04-16T07:33:18.658Z,8.43
2023-04-16T07:36:22.031Z,8.40
2023-04-16T07:39:24.913Z,8.89
2023-04-16T07:42:28.251Z,8.42
2023-04-16T07:45:31.400Z,8.79
2023-04-16T07:48:35.424Z,8.57
2023-04-16T07:51:38.356Z,8.53
2023-04-16T07:54:41.610Z,8.53
2023-04-16T07:57:44.581Z,9.56
2023-04-16T08:00:50.863Z,9.95
2023-04-16T08:03:55.009Z,10.04
2023-04-16T08:06:58.026Z,10.13
2023-04-16T08:10:02.330Z,10.21
2023-04-16T08:13:05.521Z,10.16
2023-04-16T08:16:09.034Z,11.09
2023-04-16T08:19:12.449Z,11.57
2023-04-16T08:22:16.198Z,11.21
2023-04-16T08:25:20.331Z,11.06
2023-04-16T08:28:23.577Z,10.91
2023-04-16T08:31:27.406Z,11.25
2023-04-16T08:34:31.301Z,11.40
2023-04-16T08:37:34.688Z,11.15
2023-04-16T08:40:42.504Z,11.16
2023-04-16T08:43:46.342Z,11.08
2023-04-16T08:46:52.169Z,11.83
2023-04-16T08:49:58.396Z,12.14
2023-04-16T08:53:07.039Z,12.07
2023-04-16T08:56:12.270Z,11.67
2023-04-16T08:59:16.676Z,11.63
2023-04-16T09:02:20.186Z,11.66
2023-04-16T09:05:26.631Z,11.94
2023-04-16T09:08:30.572Z,11.95
2023-04-16T09:11:35.322Z,12.25
2023-04-16T09:14:41.960Z,12.58
2023-04-16T09:17:46.443Z,12.63
2023-04-16T09:20:56.562Z,12.09
2023-04-16T09:24:01.288Z,12.46
2023-04-16T09:27:05.729Z,12.54
2023-04-16T09:30:28.900Z,13.09
2023-04-16T09:33:34.453Z,13.01
2023-04-16T09:36:40.151Z,12.90
2023-04-16T09:39:46.311Z,12.67
2023-04-16T09:42:51.171Z,12.72
2023-04-16T09:45:56.260Z,13.09
2023-04-16T09:49:09.450Z,13.42
2023-04-16T09:52:23.750Z,13.25
2023-04-16T09:55:33.156Z,13.56
2023-04-16T09:58:37.607Z,13.38
2023-04-16T10:01:43.275Z,14.33
2023-04-16T10:04:51.486Z,14.46
2023-04-16T10:08:01.427Z,14.85
2023-04-16T10:11:05.019Z,14.78
2023-04-16T10:14:08.497Z,14.15
2023-04-16T10:17:12.441Z,14.57
2023-04-16T10:20:17.272Z,14.82
2023-04-16T10:23:22.158Z,15.76
2023-04-16T10:26:25.542Z,16.41
2023-04-16T10:29:30.283Z,16.84
2023-04-16T10:32:34.580Z,15.95
2023-04-16T10:35:41.254Z,16.10
2023-04-16T10:38:49.716Z,16.81
2023-04-16T10:42:12.420Z,17.06
2023-04-16T10:45:18.026Z,17.27
2023-04-16T10:48:21.560Z,16.16
2023-04-16T10:51:35.961Z,16.80
2023-04-16T10:54:41.267Z,17.05
2023-04-16T10:57:44.334Z,16.74
2023-04-16T11:00:53.819Z,16.34
2023-04-16T11:04:00.563Z,15.98
2023-04-16T11:07:08.390Z,16.46
2023-04-16T11:10:13.893Z,16.55
2023-04-16T11:13:18.603Z,16.71
2023-04-16T11:16:21.517Z,16.59
2023-04-16T11:19:25.480Z,16.89
2023-04-16T11:22:28.485Z,17.23
2023-04-16T11:25:56.019Z,17.53
2023-04-16T11:29:00.481Z,16.96
2023-04-16T11:32:03.756Z,17.95
2023-04-16T11:35:19.140Z,17.67
2023-04-16T11:38:33.243Z,17.84
2023-04-16T11:41:49.311Z,17.94
2023-04-16T11:44:56.889Z,18.42
2023-04-16T11:47:59.879Z,18.10
2023-04-16T11:51:03.227Z,18.42
2023-04-16T11:54:10.375Z,18.82
2023-04-16T11:57:15.372Z,19.12
2023-04-16T12:00:19.288Z,18.76
2023-04-16T12:03:47.005Z,19.36
2023-04-16T12:07:11.946Z,19.24
2023-04-16T12:10:15.344Z,19.16
2023-04-16T12:13:18.497Z,18.85
2023-04-16T12:16:21.849Z,18.51
2023-04-16T12:19:25.383Z,18.53
2023-04-16T12:22:29.413Z,18.91
2023-04-16T12:25:32.370Z,18.22
2023-04-16T12:28:38.636Z,18.04
2023-04-16T12:31:41.768Z,17.92
2023-04-16T12:34:51.796Z,18.71
2023-04-16T12:37:54.725Z,16.97
2023-04-16T12:40:58.482Z,18.57
2023-04-16T12:44:07.418Z,19.33
2023-04-16T12:47:10.959Z,19.15
2023-04-16T12:50:13.958Z,17.77
2023-04-16T12:53:18.274Z,17.73
2023-04-16T12:56:22.542Z,18.39
2023-04-16T12:59:25.645Z,18.27
2023-04-16T13:02:29.771Z,18.29
2023-04-16T13:05:33.595Z,18.52
2023-04-16T13:08:37.667Z,17.88
2023-04-16T13:11:41.245Z,17.66
2023-04-16T13:14:45.118Z,18.50
2023-04-16T13:17:48.655Z,19.07
2023-04-16T13:20:52.112Z,17.54
2023-04-16T13:23:55.417Z,18.90
2023-04-16T13:26:58.734Z,17.70
2023-04-16T13:30:02.341Z,19.03
2023-04-16T13:33:05.877Z,18.64
2023-04-16T13:36:09.238Z,18.69
2023-04-16T13:39:12.353Z,18.90
2023-04-16T13:42:16.925Z,17.89
2023-04-16T13:45:22.578Z,18.42
2023-04-16T13:48:28.721Z,18.64
2023-04-16T13:51:33.270Z,18.39
2023-04-16T13:54:37.013Z,18.51
2023-04-16T13:57:41.516Z,18.03
2023-04-16T14:00:46.309Z,18.27
2023-04-16T14:03:51.189Z,18.57
2023-04-16T14:06:54.170Z,18.23
2023-04-16T14:09:57.428Z,18.03
2023-04-16T14:13:00.790Z,18.10
2023-04-16T14:16:04.997Z,18.00
2023-04-16T14:19:08.604Z,17.96
2023-04-16T14:22:11.926Z,17.90
2023-04-16T14:25:15.781Z,17.28
2023-04-16T14:28:20.692Z,17.66
2023-04-16T14:31:23.679Z,18.20
2023-04-16T14:34:26.949Z,18.19
2023-04-16T14:37:30.018Z,18.55
2023-04-16T14:40:33.366Z,18.03
2023-04-16T14:43:39.895Z,16.89
2023-04-16T14:46:44.248Z,17.34
2023-04-16T14:49:48.773Z,17.56
2023-04-16T14:52:54.316Z,17.22
2023-04-16T14:55:59.054Z,17.58
2023-04-16T14:59:02.409Z,18.64
2023-04-16T15:02:06.883Z,20.04
2023-04-16T15:05:10.897Z,22.64
2023-04-16T15:08:13.768Z,20.53
2023-04-16T15:11:18.835Z,20.41
2023-04-16T15:14:21.974Z,18.23
2023-04-16T15:17:25.393Z,19.12
2023-04-16T15:20:28.638Z,19.37
2023-04-16T15:23:32.027Z,19.14
2023-04-16T15:26:35.145Z,17.50
2023-04-16T15:29:38.994Z,16.57
2023-04-16T15:32:44.325Z,17.07
2023-04-16T15:35:47.784Z,17.46
2023-04-16T15:38:51.188Z,17.03
2023-04-16T15:42:00.657Z,16.96
2023-04-16T15:45:07.210Z,16.46
2023-04-16T15:48:11.493Z,15.84
2023-04-16T15:51:14.985Z,15.58
2023-04-16T15:54:19.803Z,15.88
2023-04-16T15:57:22.895Z,15.75
2023-04-16T16:00:26.688Z,15.60
2023-04-16T16:03:32.669Z,15.56
2023-04-16T16:06:38.453Z,15.42
2023-04-16T16:09:48.459Z,15.45
2023-04-16T16:12:52.399Z,15.38
2023-04-16T16:15:56.681Z,15.15
2023-04-16T16:19:00.664Z,14.98
2023-04-16T16:22:06.264Z,14.48
2023-04-16T16:25:10.332Z,14.42
2023-04-16T16:28:17.853Z,14.57
2023-04-16T16:31:22.132Z,14.44
2023-04-16T16:34:26.710Z,14.30
2023-04-16T16:37:31.697Z,14.06
2023-04-16T16:40:35.394Z,14.45
2023-04-16T16:43:39.609Z,14.52
2023-04-16T16:46:46.057Z,14.36
2023-04-16T16:49:53.696Z,13.75
2023-04-16T16:53:02.168Z,13.97
2023-04-16T16:56:06.844Z,13.86
2023-04-16T16:59:11.817Z,13.68
2023-04-16T17:02:17.103Z,13.75
2023-04-16T17:05:24.238Z,13.69
2023-04-16T17:08:29.205Z,13.56
2023-04-16T17:11:34.520Z,13.72
2023-04-16T17:14:39.953Z,13.46
2023-04-16T17:17:48.424Z,13.50
2023-04-16T17:20:52.223Z,13.52
2023-04-16T17:23:58.774Z,13.43
2023-04-16T17:27:04.798Z,13.50
2023-04-16T17:30:09.844Z,13.46
2023-04-16T17:33:16.211Z,13.41
2023-04-16T17:36:24.177Z,13.31
2023-04-16T17:39:27.805Z,13.25
2023-04-16T17:42:31.805Z,13.26
2023-04-16T17:45:36.023Z,13.14
2023-04-16T17:48:41.694Z,13.06
2023-04-16T17:51:47.777Z,12.86
2023-04-16T17:54:57.221Z,12.80
2023-04-16T17:58:02.478Z,12.76
2023-04-16T18:01:11.732Z,12.71
2023-04-16T18:04:16.672Z,12.68
2023-04-16T18:07:20.984Z,12.54
2023-04-16T18:10:25.489Z,12.38
2023-04-16T18:13:32.053Z,12.37
2023-04-16T18:16:37.012Z,12.11
2023-04-16T18:19:41.336Z,12.02
2023-04-16T18:22:45.045Z,11.88
2023-04-16T18:25:50.707Z,11.79
2023-04-16T18:28:55.821Z,11.80
2023-04-16T18:32:03.672Z,11.75
2023-04-16T18:35:08.653Z,11.87
2023-04-16T18:38:14.110Z,11.84
2023-04-16T18:41:23.082Z,11.75
2023-04-16T18:44:27.415Z,11.57
2023-04-16T18:47:37.600Z,11.59
2023-04-16T18:50:41.765Z,11.66
2023-04-16T18:53:46.192Z,11.56
2023-04-16T18:56:54.931Z,11.50
2023-04-16T18:59:58.830Z,11.46
2023-04-16T19:03:07.359Z,11.44
2023-04-16T19:06:12.361Z,11.39
2023-04-16T19:09:17.642Z,11.47
2023-04-16T19:12:21.742Z,11.44
2023-04-16T19:15:28.400Z,11.55
2023-04-16T19:18:35.247Z,11.57
2023-04-16T19:21:38.554Z,11.48
2023-04-16T19:24:43.187Z,11.48
2023-04-16T19:27:48.328Z,11.39
2023-04-16T19:30:54.116Z,11.45
2023-04-16T19:33:57.792Z,11.44
2023-04-16T19:37:02.390Z,11.34
2023-04-16T19:40:16.669Z,11.28
2023-04-16T19:43:20.624Z,11.19
2023-04-16T19:46:24.723Z,11.18
2023-04-16T19:49:30.774Z,11.18
2023-04-16T19:52:39.538Z,11.20
2023-04-16T19:55:43.501Z,11.10
2023-04-16T19:58:46.723Z,11.13
2023-04-16T20:01:51.390Z,11.04
2023-04-16T20:04:59.969Z,11.06
2023-04-16T20:08:04.337Z,11.03
2023-04-16T20:11:09.315Z,11.08
2023-04-16T20:14:13.310Z,11.09
2023-04-16T20:17:21.003Z,11.11
2023-04-16T20:20:25.335Z,11.07
2023-04-16T20:23:29.372Z,11.00
2023-04-16T20:26:36.845Z,11.01
2023-04-16T20:29:40.224Z,11.00
2023-04-16T20:32:44.289Z,10.90
2023-04-16T20:35:48.691Z,10.92
2023-04-16T20:38:54.148Z,10.99
2023-04-16T20:41:57.622Z,10.91
2023-04-16T20:45:01.874Z,10.90
2023-04-16T20:48:07.291Z,10.92
2023-04-16T20:51:10.398Z,10.74
2023-04-16T20:54:14.380Z,10.82
2023-04-16T20:57:17.459Z,10.95
2023-04-16T21:00:21.065Z,10.84
2023-04-16T21:03:24.980Z,10.54
2023-04-16T21:06:28.395Z,10.86
2023-04-16T21:09:31.736Z,11.02
2023-04-16T21:12:34.918Z,11.06
2023-04-16T21:15:42.058Z,11.21
2023-04-16T21:18:45.197Z,11.12
2023-04-16T21:21:48.184Z,11.14
2023-04-16T21:24:51.152Z,11.13
2023-04-16T21:27:53.812Z,11.20
2023-04-16T21:30:56.737Z,11.16
2023-04-16T21:34:00.935Z,11.13
2023-04-16T21:37:03.878Z,11.13
2023-04-16T21:40:08.235Z,11.08
2023-04-16T21:43:11.192Z,11.10
2023-04-16T21:46:14.032Z,10.93
2023-04-16T21:49:17.242Z,10.95
2023-04-16T21:52:20.076Z,10.82
2023-04-16T21:55:23.565Z,10.89
2023-04-16T21:58:26.519Z,10.80
2023-04-16T22:01:29.793Z,10.75
2023-04-16T22:04:39.045Z,10.55
2023-04-16T22:07:41.973Z,10.43
2023-04-16T22:10:45.145Z,10.24
2023-04-16T22:13:48.384Z,10.16
2023-04-16T22:16:52.506Z,10.09
2023-04-16T22:19:55.481Z,10.04
2023-04-16T22:22:59.959Z,10.00
2023-04-16T22:26:03.108Z,9.87
2023-04-16T22:29:07.083Z,9.82
2023-04-16T22:32:10.037Z,9.89
2023-04-16T22:35:13.276Z,9.74
2023-04-16T22:38:16.636Z,9.70
2023-04-16T22:41:19.788Z,9.77
2023-04-16T22:44:22.696Z,9.80
2023-04-16T22:47:25.955Z,9.73
2023-04-16T22:50:31.466Z,9.79
2023-04-16T22:53:35.249Z,9.74
2023-04-16T22:56:39.086Z,9.77
2023-04-16T22:59:42.316Z,9.76
2023-04-16T23:02:45.469Z,9.76
2023-04-16T23:05:49.354Z,9.74
2023-04-16T23:08:53.400Z,9.68
2023-04-16T23:11:58.759Z,9.70
2023-04-16T23:15:01.621Z,9.74
2023-04-16T23:18:05.990Z,9.71
2023-04-16T23:21:08.941Z,9.73
2023-04-16T23:24:12.281Z,9.67
2023-04-16T23:27:15.634Z,9.60
2023-04-16T23:30:19.265Z,9.60
2023-04-16T23:33:22.254Z,9.59
2023-04-16T23:36:27.067Z,9.59
2023-04-16T23:39:29.954Z,9.58
2023-04-16T23:42:33.180Z,9.37
2023-04-16T23:45:36.102Z,9.27
2023-04-16T23:48:39.415Z,9.12
2023-04-16T23:51:42.489Z,9.15
2023-04-16T23:54:46.899Z,9.23
2023-04-16T23:57:49.874Z,9.16
